createdAt,value
2018-05-13T00:02:16.631Z,15.97
2018-05-13T00:04:46.329Z,16.00
2018-05-13T00:07:16.053Z,16.09
2018-05-13T00:09:45.717Z,15.99
2018-05-13T00:12:15.387Z,16.08
2018-05-13T00:14:45.099Z,16.06
2018-05-13T00:17:15.660Z,16.03
2018-05-13T00:19:45.413Z,16.11
2018-05-13T00:22:15.111Z,16.12
2018-05-13T00:24:44.833Z,16.21
2018-05-13T00:27:14.562Z,16.16
2018-05-13T00:29:44.380Z,16.02
2018-05-13T00:32:14.579Z,16.12
2018-05-13T00:34:44.804Z,16.17
2018-05-13T00:37:14.618Z,16.32
2018-05-13T00:39:44.796Z,16.27
2018-05-13T00:42:14.614Z,16.07
2018-05-13T00:44:44.284Z,15.96
2018-05-13T00:47:14.004Z,15.90
2018-05-13T00:49:43.708Z,15.87
2018-05-13T00:52:13.386Z,15.83
2018-05-13T00:54:56.190Z,15.98
2018-05-13T00:57:25.913Z,15.98
2018-05-13T00:59:55.573Z,16.08
2018-05-13T01:02:25.351Z,16.15
2018-05-13T01:04:55.453Z,15.99
2018-05-13T01:07:25.172Z,15.70
2018-05-13T01:09:55.065Z,15.56
2018-05-13T01:12:24.852Z,15.55
2018-05-13T01:14:54.565Z,15.33
2018-05-13T01:17:24.289Z,15.21
2018-05-13T01:19:54.457Z,15.39
2018-05-13T01:22:24.129Z,15.47
2018-05-13T01:24:53.820Z,15.49
2018-05-13T01:27:24.068Z,15.64
2018-05-13T01:29:54.072Z,15.74
2018-05-13T01:32:23.766Z,15.66
2018-05-13T01:34:53.425Z,15.55
2018-05-13T01:37:23.814Z,15.71
2018-05-13T01:39:53.527Z,15.93
2018-05-13T01:42:23.648Z,16.01
2018-05-13T01:44:53.312Z,15.79
2018-05-13T01:47:23.021Z,15.63
2018-05-13T01:49:52.736Z,15.50
2018-05-13T01:52:22.455Z,15.47
2018-05-13T01:54:52.150Z,15.40
2018-05-13T01:57:21.877Z,15.32
2018-05-13T01:59:51.565Z,15.40
2018-05-13T02:02:21.694Z,15.63
2018-05-13T02:04:51.636Z,15.75
2018-05-13T02:07:21.327Z,15.80
2018-05-13T02:09:51.073Z,15.92
2018-05-13T02:12:20.764Z,15.88
2018-05-13T02:14:50.443Z,15.78
2018-05-13T02:17:20.312Z,15.71
2018-05-13T02:19:50.569Z,15.48
2018-05-13T02:22:20.313Z,15.44
2018-05-13T02:24:50.004Z,15.78
2018-05-13T02:27:19.738Z,15.78
2018-05-13T02:29:49.421Z,15.83
2018-05-13T02:32:19.648Z,15.91
2018-05-13T02:34:49.360Z,15.85
2018-05-13T02:37:19.073Z,15.96
2018-05-13T02:39:49.735Z,15.92
2018-05-13T02:42:19.444Z,15.93
2018-05-13T02:44:49.110Z,15.96
2018-05-13T02:47:18.977Z,15.97
2018-05-13T02:49:48.720Z,15.93
2018-05-13T02:52:18.436Z,15.84
2018-05-13T02:54:48.137Z,15.84
2018-05-13T02:57:17.823Z,15.74
2018-05-13T02:59:47.621Z,15.59
2018-05-13T03:02:17.566Z,15.49
2018-05-13T03:04:47.271Z,15.27
2018-05-13T03:07:17.741Z,15.20
2018-05-13T03:09:47.411Z,15.15
2018-05-13T03:12:17.127Z,15.16
2018-05-13T03:14:46.854Z,15.18
2018-05-13T03:17:16.844Z,14.93
2018-05-13T03:19:46.606Z,14.98
2018-05-13T03:22:16.327Z,14.69
2018-05-13T03:24:46.137Z,14.64
2018-05-13T03:27:16.352Z,14.60
2018-05-13T03:29:46.036Z,14.57
2018-05-13T03:32:15.989Z,14.47
2018-05-13T03:34:45.774Z,14.39
2018-05-13T03:37:15.464Z,14.32
2018-05-13T03:39:45.128Z,14.32
2018-05-13T03:42:15.259Z,14.27
2018-05-13T03:44:45.214Z,14.17
2018-05-13T03:47:14.926Z,14.22
2018-05-13T03:49:44.659Z,14.26
2018-05-13T03:52:14.389Z,14.27
2018-05-13T03:54:44.060Z,14.30
2018-05-13T03:57:13.770Z,14.38
2018-05-13T03:59:43.472Z,14.45
2018-05-13T04:02:13.235Z,14.53
2018-05-13T04:04:42.897Z,14.59
2018-05-13T04:07:12.610Z,14.58
2018-05-13T04:09:54.201Z,14.53
2018-05-13T04:12:35.494Z,14.38
2018-05-13T04:15:24.113Z,14.30
2018-05-13T04:17:53.782Z,14.33
2018-05-13T04:20:23.485Z,14.52
2018-05-13T04:22:53.231Z,14.47
2018-05-13T04:25:22.892Z,14.56
2018-05-13T04:27:52.606Z,14.69
2018-05-13T04:30:22.324Z,14.73
2018-05-13T04:32:52.034Z,14.76
2018-05-13T04:35:21.738Z,14.68
2018-05-13T04:37:51.456Z,14.64
2018-05-13T04:40:21.159Z,14.63
2018-05-13T04:42:50.885Z,14.66
2018-05-13T04:45:20.584Z,14.58
2018-05-13T04:47:50.239Z,14.63
2018-05-13T04:50:19.961Z,14.63
2018-05-13T04:52:49.685Z,14.76
2018-05-13T04:55:19.396Z,14.68
2018-05-13T04:57:49.149Z,14.72
2018-05-13T05:00:18.894Z,14.75
2018-05-13T05:02:48.600Z,14.83
2018-05-13T05:05:18.349Z,15.01
2018-05-13T05:07:48.070Z,15.01
2018-05-13T05:10:17.777Z,15.10
2018-05-13T05:12:47.534Z,15.19
2018-05-13T05:15:17.226Z,15.22
2018-05-13T05:17:46.942Z,15.14
2018-05-13T05:20:16.644Z,15.62
2018-05-13T05:22:46.454Z,15.75
2018-05-13T05:25:16.200Z,15.81
2018-05-13T05:27:46.051Z,15.91
2018-05-13T05:30:15.733Z,16.12
2018-05-13T05:32:45.489Z,16.21
2018-05-13T05:35:15.148Z,16.21
2018-05-13T05:37:44.866Z,16.12
2018-05-13T05:40:14.555Z,16.11
2018-05-13T05:42:44.231Z,16.03
2018-05-13T05:45:13.987Z,16.41
2018-05-13T05:47:43.683Z,16.32
2018-05-13T05:50:13.357Z,16.24
2018-05-13T05:52:43.060Z,16.26
2018-05-13T05:55:12.725Z,16.28
2018-05-13T05:57:42.405Z,16.20
2018-05-13T06:00:12.126Z,16.15
2018-05-13T06:02:41.810Z,16.24
2018-05-13T06:05:11.524Z,16.26
2018-05-13T06:07:41.252Z,16.42
2018-05-13T06:10:10.987Z,16.82
2018-05-13T06:12:40.666Z,17.09
2018-05-13T06:15:10.389Z,17.49
2018-05-13T06:17:40.062Z,17.65
2018-05-13T06:20:09.748Z,18.07
2018-05-13T06:22:39.499Z,18.32
2018-05-13T06:25:09.253Z,18.64
2018-05-13T06:27:38.997Z,18.93
2018-05-13T06:30:08.713Z,19.01
2018-05-13T06:32:38.397Z,19.25
2018-05-13T06:35:08.145Z,19.50
2018-05-13T06:37:37.846Z,19.80
2018-05-13T06:40:07.556Z,19.58
2018-05-13T06:42:37.287Z,19.59
2018-05-13T06:45:07.003Z,19.55
2018-05-13T06:47:36.722Z,19.56
2018-05-13T06:50:06.488Z,19.82
2018-05-13T06:52:36.257Z,19.94
2018-05-13T06:55:06.023Z,19.94
2018-05-13T06:57:35.731Z,19.86
2018-05-13T07:00:05.538Z,19.98
2018-05-13T07:02:35.279Z,20.38
2018-05-13T07:05:04.981Z,20.34
2018-05-13T07:07:34.702Z,20.60
2018-05-13T07:10:04.433Z,20.53
2018-05-13T07:12:34.153Z,20.56
2018-05-13T07:15:03.916Z,20.77
2018-05-13T07:17:33.588Z,21.05
2018-05-13T07:20:03.335Z,21.09
2018-05-13T07:22:33.096Z,20.99
2018-05-13T07:25:02.792Z,21.08
2018-05-13T07:27:32.595Z,21.12
2018-05-13T07:30:02.317Z,21.46
2018-05-13T07:32:32.014Z,21.81
2018-05-13T07:35:01.758Z,21.86
2018-05-13T07:37:31.455Z,21.87
2018-05-13T07:40:01.158Z,22.10
2018-05-13T07:42:30.943Z,22.36
2018-05-13T07:45:00.665Z,22.62
2018-05-13T07:47:30.369Z,22.94
2018-05-13T07:50:00.077Z,22.71
2018-05-13T07:52:29.759Z,22.57
2018-05-13T07:54:59.548Z,22.19
2018-05-13T07:57:29.295Z,22.18
2018-05-13T07:59:58.991Z,22.62
2018-05-13T08:02:28.714Z,22.98
2018-05-13T08:04:58.418Z,23.04
2018-05-13T08:07:28.123Z,23.10
2018-05-13T08:09:57.879Z,23.33
2018-05-13T08:12:28.262Z,23.72
2018-05-13T08:14:58.149Z,23.99
2018-05-13T08:17:27.905Z,23.95
2018-05-13T08:19:57.686Z,23.84
2018-05-13T08:22:27.422Z,24.17
2018-05-13T08:24:57.130Z,24.28
2018-05-13T08:27:26.877Z,23.97
2018-05-13T08:29:56.596Z,23.94
2018-05-13T08:32:26.307Z,23.71
2018-05-13T08:34:56.086Z,23.36
2018-05-13T08:37:25.774Z,23.34
2018-05-13T08:39:55.496Z,23.77
2018-05-13T08:42:25.186Z,24.16
2018-05-13T08:44:55.253Z,24.36
2018-05-13T08:47:25.007Z,25.04
2018-05-13T08:49:54.938Z,25.36
2018-05-13T08:52:24.662Z,24.74
2018-05-13T08:54:54.348Z,24.36
2018-05-13T08:57:24.055Z,23.50
2018-05-13T08:59:53.788Z,22.92
2018-05-13T09:02:23.501Z,23.29
2018-05-13T09:04:53.229Z,23.76
2018-05-13T09:07:22.965Z,23.41
2018-05-13T09:09:52.665Z,23.80
2018-05-13T09:12:22.410Z,24.61
2018-05-13T09:14:52.104Z,24.82
2018-05-13T09:17:21.811Z,25.53
2018-05-13T09:19:51.655Z,26.16
2018-05-13T09:22:21.342Z,26.02
2018-05-13T09:24:51.057Z,25.05
2018-05-13T09:27:20.777Z,25.03
2018-05-13T09:29:50.483Z,24.51
2018-05-13T09:32:20.175Z,24.91
2018-05-13T09:34:49.910Z,25.37
2018-05-13T09:37:19.620Z,25.26
2018-05-13T09:39:49.419Z,25.33
2018-05-13T09:42:19.127Z,25.74
2018-05-13T09:44:48.839Z,25.72
2018-05-13T09:47:18.573Z,25.43
2018-05-13T09:49:48.316Z,25.25
2018-05-13T09:52:18.012Z,25.08
2018-05-13T09:54:47.776Z,25.14
2018-05-13T09:57:17.498Z,25.77
2018-05-13T09:59:47.290Z,25.74
2018-05-13T10:02:16.964Z,26.47
2018-05-13T10:04:46.646Z,26.93
2018-05-13T10:07:16.379Z,26.50
2018-05-13T10:09:46.064Z,26.81
2018-05-13T10:12:15.760Z,27.35
2018-05-13T10:14:45.488Z,27.71
2018-05-13T10:17:15.166Z,27.37
2018-05-13T10:19:44.853Z,27.28
2018-05-13T10:22:14.582Z,26.92
2018-05-13T10:24:44.248Z,26.30
2018-05-13T10:27:13.964Z,26.36
2018-05-13T10:29:43.701Z,26.78
2018-05-13T10:32:13.383Z,27.53
2018-05-13T10:34:43.095Z,27.19
2018-05-13T10:37:12.779Z,28.11
2018-05-13T10:39:42.501Z,28.85
2018-05-13T10:42:12.266Z,29.29
2018-05-13T10:44:41.955Z,28.74
2018-05-13T10:47:11.692Z,28.10
2018-05-13T10:49:41.404Z,27.94
2018-05-13T10:52:11.111Z,27.49
2018-05-13T10:54:40.830Z,27.68
2018-05-13T10:57:10.592Z,28.31
2018-05-13T10:59:40.276Z,28.21
2018-05-13T11:02:10.031Z,27.96
2018-05-13T11:04:39.841Z,27.78
2018-05-13T11:07:09.509Z,28.00
2018-05-13T11:09:39.225Z,29.10
2018-05-13T11:12:08.913Z,28.35
2018-05-13T11:14:38.647Z,28.86
2018-05-13T11:17:08.380Z,29.61
2018-05-13T11:19:38.078Z,29.62
2018-05-13T11:22:07.784Z,29.85
2018-05-13T11:24:37.565Z,29.12
2018-05-13T11:27:07.261Z,28.87
2018-05-13T11:29:37.009Z,29.24
2018-05-13T11:32:06.740Z,29.42
2018-05-13T11:34:36.444Z,29.79
2018-05-13T11:37:06.231Z,29.91
2018-05-13T11:39:35.937Z,30.03
2018-05-13T11:42:05.640Z,30.10
2018-05-13T11:44:35.387Z,29.91
2018-05-13T11:47:05.148Z,30.19
2018-05-13T11:49:34.900Z,30.25
2018-05-13T11:52:04.584Z,30.82
2018-05-13T11:54:34.267Z,30.23
2018-05-13T11:57:04.026Z,30.36
2018-05-13T11:59:33.704Z,30.43
2018-05-13T12:02:03.488Z,30.66
2018-05-13T12:04:33.280Z,29.73
2018-05-13T12:07:03.025Z,29.64
2018-05-13T12:09:32.766Z,29.91
2018-05-13T12:12:02.472Z,29.86
2018-05-13T12:14:32.137Z,30.28
2018-05-13T12:17:01.844Z,30.04
2018-05-13T12:19:31.524Z,31.03
2018-05-13T12:22:01.271Z,31.78
2018-05-13T12:24:31.003Z,31.94
2018-05-13T12:27:00.684Z,32.10
2018-05-13T12:29:30.371Z,31.22
2018-05-13T12:32:00.098Z,30.82
2018-05-13T12:34:29.786Z,30.39
2018-05-13T12:36:59.474Z,30.23
2018-05-13T12:39:29.218Z,30.88
2018-05-13T12:41:58.895Z,30.43
2018-05-13T12:44:28.634Z,30.42
2018-05-13T12:46:58.318Z,30.05
2018-05-13T12:49:28.025Z,29.78
2018-05-13T12:51:57.717Z,29.97
2018-05-13T12:54:27.393Z,30.23
2018-05-13T12:56:57.055Z,30.68
2018-05-13T12:59:26.784Z,30.70
2018-05-13T13:01:56.449Z,30.72
2018-05-13T13:04:26.167Z,30.95
2018-05-13T13:06:55.875Z,31.02
2018-05-13T13:09:25.651Z,31.27
2018-05-13T13:11:55.286Z,30.75
2018-05-13T13:14:24.993Z,30.79
2018-05-13T13:16:54.681Z,30.62
2018-05-13T13:19:24.372Z,31.02
2018-05-13T13:21:54.121Z,31.07
2018-05-13T13:24:23.801Z,31.66
2018-05-13T13:26:53.513Z,31.68
2018-05-13T13:29:23.220Z,31.27
2018-05-13T13:31:52.907Z,30.28
2018-05-13T13:34:22.618Z,30.35
2018-05-13T13:36:52.293Z,30.77
2018-05-13T13:39:21.965Z,30.73
2018-05-13T13:41:51.719Z,30.90
2018-05-13T13:44:21.392Z,31.07
2018-05-13T13:46:51.076Z,31.30
2018-05-13T13:49:20.788Z,31.41
2018-05-13T13:51:50.456Z,30.99
2018-05-13T13:54:20.229Z,30.96
2018-05-13T13:56:51.617Z,31.02
2018-05-13T13:59:21.376Z,30.84
2018-05-13T14:01:51.076Z,31.01
2018-05-13T14:04:20.879Z,31.23
2018-05-13T14:06:50.596Z,30.95
2018-05-13T14:09:20.329Z,30.10
2018-05-13T14:11:50.112Z,29.94
2018-05-13T14:14:19.811Z,30.10
2018-05-13T14:16:49.566Z,30.24
2018-05-13T14:19:19.835Z,30.36
2018-05-13T14:21:49.610Z,29.94
2018-05-13T14:24:19.274Z,29.24
2018-05-13T14:26:48.944Z,29.24
2018-05-13T14:29:18.680Z,28.59
2018-05-13T14:31:48.371Z,27.51
2018-05-13T14:34:18.091Z,27.03
2018-05-13T14:36:47.784Z,26.56
2018-05-13T14:39:17.465Z,26.63
2018-05-13T14:41:47.188Z,26.30
2018-05-13T14:44:16.961Z,26.28
2018-05-13T14:46:46.663Z,26.23
2018-05-13T14:49:16.366Z,25.90
2018-05-13T14:51:46.052Z,25.77
2018-05-13T14:54:15.732Z,25.71
2018-05-13T14:56:45.471Z,24.47
2018-05-13T14:59:15.147Z,23.83
2018-05-13T15:01:44.825Z,23.33
2018-05-13T15:04:14.576Z,23.28
2018-05-13T15:06:44.253Z,23.02
2018-05-13T15:09:13.949Z,22.82
2018-05-13T15:11:43.712Z,23.11
2018-05-13T15:14:13.389Z,23.03
2018-05-13T15:16:43.149Z,23.31
2018-05-13T15:19:12.829Z,23.90
2018-05-13T15:21:42.516Z,24.18
2018-05-13T15:24:12.218Z,24.63
2018-05-13T15:26:41.921Z,24.84
2018-05-13T15:29:11.632Z,24.85
2018-05-13T15:31:41.352Z,24.69
2018-05-13T15:34:11.025Z,24.71
2018-05-13T15:36:40.705Z,24.58
2018-05-13T15:39:10.420Z,24.91
2018-05-13T15:41:40.214Z,24.90
2018-05-13T15:44:09.933Z,25.19
2018-05-13T15:46:39.697Z,25.11
2018-05-13T15:49:09.426Z,24.77
2018-05-13T15:51:39.227Z,24.77
2018-05-13T15:54:08.962Z,24.76
2018-05-13T15:56:38.654Z,24.71
2018-05-13T15:59:08.387Z,24.93
2018-05-13T16:01:38.069Z,24.89
2018-05-13T16:04:07.747Z,24.95
2018-05-13T16:06:37.604Z,24.75
2018-05-13T16:09:07.266Z,24.72
2018-05-13T16:11:36.989Z,24.95
2018-05-13T16:14:06.720Z,24.96
2018-05-13T16:16:36.393Z,25.23
2018-05-13T16:19:06.260Z,25.09
2018-05-13T16:21:35.906Z,24.79
2018-05-13T16:24:05.627Z,25.04
2018-05-13T16:26:35.360Z,25.13
2018-05-13T16:29:05.054Z,25.19
2018-05-13T16:31:34.787Z,25.25
2018-05-13T16:34:04.473Z,25.29
2018-05-13T16:36:34.200Z,25.34
2018-05-13T16:39:04.033Z,25.56
2018-05-13T16:41:33.698Z,25.81
2018-05-13T16:44:03.413Z,25.83
2018-05-13T16:46:33.181Z,25.73
2018-05-13T16:49:02.865Z,25.73
2018-05-13T16:51:32.546Z,25.77
2018-05-13T16:54:02.256Z,25.77
2018-05-13T16:56:32.155Z,25.85
2018-05-13T16:59:01.875Z,26.03
2018-05-13T17:01:31.548Z,26.24
2018-05-13T17:04:01.241Z,25.94
2018-05-13T17:06:31.009Z,25.64
2018-05-13T17:09:00.711Z,25.65
2018-05-13T17:11:30.398Z,25.65
2018-05-13T17:14:00.198Z,25.47
2018-05-13T17:16:29.885Z,25.25
2018-05-13T17:19:00.440Z,24.97
2018-05-13T17:21:30.137Z,24.74
2018-05-13T17:23:59.856Z,24.36
2018-05-13T17:26:29.550Z,23.99
2018-05-13T17:28:59.211Z,23.53
2018-05-13T17:31:28.935Z,23.04
2018-05-13T17:33:58.612Z,22.86
2018-05-13T17:36:28.296Z,23.05
2018-05-13T17:38:58.049Z,22.91
2018-05-13T17:41:27.735Z,22.60
2018-05-13T17:43:57.439Z,22.45
2018-05-13T17:46:27.137Z,22.20
2018-05-13T17:48:56.840Z,21.99
2018-05-13T17:51:26.560Z,21.67
2018-05-13T17:53:56.264Z,21.70
2018-05-13T17:56:25.941Z,21.75
2018-05-13T17:58:55.662Z,21.37
2018-05-13T18:01:25.345Z,20.96
2018-05-13T18:03:55.040Z,20.83
2018-05-13T18:06:24.763Z,20.65
2018-05-13T18:08:54.427Z,20.86
2018-05-13T18:11:24.102Z,20.68
2018-05-13T18:13:53.810Z,20.71
2018-05-13T18:16:23.498Z,20.52
2018-05-13T18:18:53.198Z,20.59
2018-05-13T18:21:22.907Z,20.16
2018-05-13T18:23:52.588Z,20.07
2018-05-13T18:26:22.306Z,20.27
2018-05-13T18:28:52.073Z,20.27
2018-05-13T18:31:21.771Z,19.98
2018-05-13T18:33:51.504Z,20.02
2018-05-13T18:36:21.186Z,19.87
2018-05-13T18:38:50.890Z,19.84
2018-05-13T18:41:20.657Z,19.93
2018-05-13T18:43:50.387Z,19.90
2018-05-13T18:46:20.068Z,19.67
2018-05-13T18:48:49.851Z,19.65
2018-05-13T18:51:19.704Z,19.61
2018-05-13T18:53:49.443Z,19.41
2018-05-13T18:56:19.116Z,19.50
2018-05-13T18:58:48.825Z,19.39
2018-05-13T19:01:18.602Z,19.15
2018-05-13T19:03:48.327Z,18.90
2018-05-13T19:06:18.045Z,18.74
2018-05-13T19:08:47.754Z,18.62
2018-05-13T19:11:17.435Z,18.47
2018-05-13T19:13:47.181Z,18.52
2018-05-13T19:16:16.940Z,18.59
2018-05-13T19:18:46.724Z,18.54
2018-05-13T19:21:16.622Z,18.44
2018-05-13T19:23:46.332Z,18.15
2018-05-13T19:26:16.087Z,17.93
2018-05-13T19:28:45.780Z,17.81
2018-05-13T19:31:15.475Z,17.72
2018-05-13T19:33:45.207Z,17.71
2018-05-13T19:36:14.899Z,17.98
2018-05-13T19:38:44.564Z,18.09
2018-05-13T19:41:14.295Z,18.12
2018-05-13T19:43:57.299Z,18.07
2018-05-13T19:46:27.137Z,18.09
2018-05-13T19:48:56.844Z,18.22
2018-05-13T19:51:26.552Z,18.29
2018-05-13T19:53:56.321Z,18.19
2018-05-13T19:56:25.997Z,18.22
2018-05-13T19:58:55.668Z,18.21
2018-05-13T20:01:25.405Z,18.11
2018-05-13T20:03:55.071Z,18.06
2018-05-13T20:06:24.764Z,18.06
2018-05-13T20:08:54.627Z,17.95
2018-05-13T20:11:27.308Z,17.89
2018-05-13T20:13:57.045Z,17.77
2018-05-13T20:16:26.719Z,17.77
2018-05-13T20:18:56.426Z,17.71
2018-05-13T20:21:26.189Z,17.70
2018-05-13T20:23:55.873Z,17.60
2018-05-13T20:26:25.954Z,17.47
2018-05-13T20:28:55.644Z,17.49
2018-05-13T20:31:25.693Z,17.48
2018-05-13T20:33:55.779Z,17.54
2018-05-13T20:36:25.790Z,17.49
2018-05-13T20:38:56.753Z,17.44
2018-05-13T20:41:26.488Z,17.20
2018-05-13T20:43:56.375Z,17.15
2018-05-13T20:46:26.361Z,17.08
2018-05-13T20:48:56.142Z,16.97
2018-05-13T20:51:25.907Z,17.03
2018-05-13T20:53:55.606Z,17.01
2018-05-13T20:56:25.329Z,17.09
2018-05-13T20:58:55.648Z,16.90
2018-05-13T21:01:25.392Z,16.42
2018-05-13T21:03:55.136Z,16.60
2018-05-13T21:06:24.846Z,16.41
2018-05-13T21:08:54.584Z,16.28
2018-05-13T21:11:24.280Z,16.34
2018-05-13T21:13:54.291Z,16.34
2018-05-13T21:16:24.001Z,16.41
2018-05-13T21:18:53.772Z,16.49
2018-05-13T21:21:23.462Z,16.62
2018-05-13T21:23:53.304Z,16.66
2018-05-13T21:26:23.029Z,16.64
2018-05-13T21:28:52.750Z,16.84
2018-05-13T21:31:22.777Z,16.72
2018-05-13T21:33:52.505Z,16.64
2018-05-13T21:36:22.230Z,16.38
2018-05-13T21:38:51.970Z,16.40
2018-05-13T21:41:21.733Z,16.40
2018-05-13T21:43:51.397Z,16.25
2018-05-13T21:46:21.144Z,16.01
2018-05-13T21:48:50.821Z,16.07
2018-05-13T21:51:20.959Z,16.12
2018-05-13T21:53:51.202Z,16.25
2018-05-13T21:56:21.145Z,16.41
2018-05-13T21:58:50.921Z,16.41
2018-05-13T22:01:20.640Z,16.38
2018-05-13T22:03:50.355Z,16.27
2018-05-13T22:06:20.120Z,16.33
2018-05-13T22:08:50.501Z,16.26
2018-05-13T22:11:20.889Z,16.21
2018-05-13T22:13:50.672Z,16.06
2018-05-13T22:16:20.954Z,16.00
2018-05-13T22:18:51.207Z,15.93
2018-05-13T22:21:21.511Z,15.96
2018-05-13T22:23:51.329Z,15.74
2018-05-13T22:26:21.560Z,15.66
2018-05-13T22:28:52.991Z,15.75
2018-05-13T22:31:23.106Z,15.85
2018-05-13T22:33:53.456Z,15.86
2018-05-13T22:36:23.649Z,15.96
2018-05-13T22:38:53.981Z,16.02
2018-05-13T22:41:23.980Z,15.99
2018-05-13T22:43:54.418Z,16.04
2018-05-13T22:46:24.132Z,15.96
2018-05-13T22:48:54.331Z,15.93
2018-05-13T22:51:24.603Z,15.96
2018-05-13T22:53:54.983Z,15.80
2018-05-13T22:56:24.735Z,15.85
2018-05-13T22:58:55.513Z,15.90
2018-05-13T23:01:26.033Z,15.69
2018-05-13T23:03:56.296Z,15.69
2018-05-13T23:06:26.648Z,15.89
2018-05-13T23:08:56.610Z,15.90
2018-05-13T23:11:26.418Z,15.83
2018-05-13T23:13:56.177Z,15.76
2018-05-13T23:16:26.351Z,15.52
2018-05-13T23:18:56.112Z,15.43
2018-05-13T23:21:27.005Z,15.51
2018-05-13T23:23:56.989Z,15.40
2018-05-13T23:26:26.915Z,15.28
2018-05-13T23:28:56.656Z,15.29
2018-05-13T23:31:27.330Z,15.15
2018-05-13T23:33:57.485Z,15.14
2018-05-13T23:36:28.030Z,15.12
2018-05-13T23:38:57.751Z,15.14
2018-05-13T23:41:27.607Z,15.13
2018-05-13T23:43:58.035Z,15.10
2018-05-13T23:46:27.758Z,15.11
2018-05-13T23:48:57.710Z,15.21
2018-05-13T23:51:27.679Z,15.39
2018-05-13T23:53:57.975Z,15.45
2018-05-13T23:56:28.071Z,15.26
2018-05-13T23:58:57.819Z,15.05
